Fleurus, Belgium
Current Conditions -  °F | °C
As of 3:20 AM on Saturday 25 Oct 2014 (Local Time) from EBCI Reporting Station
Light Rain Light Rain  
Wind Chill: 52°   Ceiling: 400
Heat Index: 52°   Visibility: 1.8mi
Dew Point: 50°   Wind: 10mph
Humidity: 94%   Direction: 210°SSW
Pressure: 30.03"   Gusts: NA
Location:  50.48°N, 4.55°E
Report Text: EBCI 250120Z 21009KT 3000 -RADZ BKN004 BKN007 11/10 Q1017 NOSIG
Loading
Personal Weather Stations






























Interactive Weather Map
Tropical Storm Tracking
New forecast layout! Learn more

10-Day Weather Forecast

Advertisements
Track Severe Weather on mobile